Casey, Illinois
Current Conditions -  °F | °C
As of 7:53 AM on Friday 24 Oct 2014 (Local Time) from KMTO Reporting Station
Few Clouds Few Clouds  
Wind Chill: 47°   Ceiling: Unl
Heat Index: 49°   Visibility: 10mi
Dew Point: 45°   Wind: 6mph
Humidity: 86%   Direction: 190°S
Pressure: 30.09"   Gusts: NA
Location:  39.3°N, 87.99°W
Report Text: KMTO 241253Z AUTO 19005KT 10SM FEW025 09/07 A3009 RMK AO2 SLP190 T00940072
Loading
Personal Weather Stations






























Interactive Weather Map
Tropical Storm Tracking
New forecast layout! Learn more

10-Day Weather Forecast

Advertisements
Track Severe Weather on mobile